Time;durP1;ratioP1;P1;durP2;ratioP2;P2;SDS_P1;SDS_P2;PMS_P1;PMS_P2;Temp;Humidity;BMP_temperature;BMP_pressure;BME280_temperature;BME280_humidity;BME280_pressure;Samples;Min_cycle;Max_cycle;Signal;HPM_P1;HPM_P2
2022/04/27 00:00:38;;;;;;;12.68;6.15;;;;;;;5.10;78.29;102327.13;5034013;28;20029;-68
2022/04/27 00:03:05;;;;;;;9.38;6.50;;;;;;;5.06;78.48;102333.34;5033070;28;20047;-67
2022/04/27 00:05:32;;;;;;;10.90;7.03;;;;;;;5.05;78.65;102336.88;5033275;28;20295;-68
2022/04/27 00:07:58;;;;;;;10.75;7.13;;;;;;;5.05;78.54;102336.88;5033360;28;20044;-68
2022/04/27 00:10:24;;;;;;;12.02;6.78;;;;;;;4.93;78.45;102330.91;5032839;28;20033;-68
2022/04/27 00:12:50;;;;;;;12.80;6.63;;;;;;;4.93;78.35;102333.56;5034522;28;20041;-68
2022/04/27 00:15:16;;;;;;;11.60;6.70;;;;;;;4.88;78.37;102331.88;5032892;28;20079;-68
2022/04/27 00:17:41;;;;;;;15.15;7.25;;;;;;;4.89;78.69;102330.97;5033843;28;20152;-68
2022/04/27 00:20:08;;;;;;;12.95;6.70;;;;;;;4.73;78.81;102325.06;5032926;28;20048;-68
2022/04/27 00:22:35;;;;;;;9.60;6.53;;;;;;;4.93;78.51;102327.41;5033295;28;20045;-68
2022/04/27 00:25:02;;;;;;;10.57;7.28;;;;;;;4.88;78.86;102314.25;5030727;28;20044;-68
2022/04/27 00:27:28;;;;;;;11.15;6.65;;;;;;;4.89;78.59;102318.63;5032456;28;20071;-67
2022/04/27 00:29:54;;;;;;;10.10;6.25;;;;;;;4.72;79.04;102330.34;5032201;28;20037;-67
2022/04/27 00:32:19;;;;;;;10.70;6.78;;;;;;;4.67;80.10;102327.81;5033102;28;20049;-67
2022/04/27 00:34:45;;;;;;;12.02;6.72;;;;;;;4.72;80.28;102322.41;5033569;28;20246;-67
2022/04/27 00:37:10;;;;;;;17.80;7.30;;;;;;;4.83;79.45;102328.44;5016479;28;20033;-67
2022/04/27 00:39:35;;;;;;;26.73;7.75;;;;;;;4.77;79.67;102323.22;5034382;28;20107;-66
2022/04/27 00:42:14;;;;;;;17.73;7.50;;;;;;;4.81;79.80;102328.44;5033951;28;20956;-67
2022/04/27 00:44:44;;;;;;;11.60;7.13;;;;;;;4.78;79.54;102331.16;5016765;28;20048;-67
2022/04/27 00:47:10;;;;;;;14.18;6.97;;;;;;;4.74;79.64;102331.22;5037529;28;20054;-67
2022/04/27 00:49:37;;;;;;;10.57;6.35;;;;;;;4.65;79.92;102332.22;5037695;28;20035;-67
2022/04/27 00:52:02;;;;;;;13.13;6.45;;;;;;;4.70;79.48;102333.03;5037925;28;20041;-68
2022/04/27 00:54:28;;;;;;;10.50;6.78;;;;;;;4.74;79.11;102331.22;5019522;28;20273;-67
2022/04/27 00:56:54;;;;;;;12.00;7.97;;;;;;;4.59;79.77;102334.97;5003597;28;20041;-68
2022/04/27 00:59:19;;;;;;;15.93;7.55;;;;;;;4.65;79.86;102345.44;5037813;28;20052;-68
2022/04/27 01:01:45;;;;;;;17.05;7.57;;;;;;;4.43;81.07;102339.59;5036359;28;20032;-68
2022/04/27 01:04:10;;;;;;;14.88;6.88;;;;;;;4.20;81.95;102345.16;5016016;28;20095;-68
2022/04/27 01:06:39;;;;;;;18.33;6.60;;;;;;;4.32;80.79;102346.78;5035041;28;20125;-68
2022/04/27 01:09:06;;;;;;;14.73;6.80;;;;;;;4.25;80.69;102351.25;5017186;28;20746;-68
2022/04/27 01:11:32;;;;;;;11.82;7.60;;;;;;;4.21;80.29;102349.53;5017086;28;20131;-67
2022/04/27 01:13:58;;;;;;;11.07;7.13;;;;;;;4.14;80.49;102351.41;5017290;28;20044;-67
2022/04/27 01:16:23;;;;;;;11.82;7.10;;;;;;;4.03;80.56;102355.06;5016983;28;20126;-68
2022/04/27 01:18:50;;;;;;;10.27;6.70;;;;;;;3.80;81.18;102348.28;5015238;28;20037;-68
2022/04/27 01:21:16;;;;;;;16.50;7.63;;;;;;;3.80;80.84;102357.94;5008757;28;20049;-68
2022/04/27 01:23:51;;;;;;;12.43;7.13;;;;;;;3.65;80.73;102351.06;5019906;28;20037;-68
2022/04/27 01:26:16;;;;;;;11.38;7.30;;;;;;;3.67;81.04;102349.31;5034879;28;20268;-68
2022/04/27 01:28:42;;;;;;;11.23;7.30;;;;;;;3.67;80.42;102359.00;5039644;28;20036;-67
2022/04/27 01:31:10;;;;;;;13.15;7.22;;;;;;;3.76;80.26;102359.75;5057347;28;20040;-67
2022/04/27 01:33:35;;;;;;;11.70;6.88;;;;;;;3.79;80.32;102356.22;5057064;28;20047;-67
2022/04/27 01:36:03;;;;;;;13.35;7.43;;;;;;;3.81;80.30;102350.00;5057218;28;20438;-67
2022/04/27 01:38:34;;;;;;;13.38;7.30;;;;;;;3.81;80.29;102363.19;5035127;28;20044;-68
2022/04/27 01:40:59;;;;;;;13.00;7.25;;;;;;;3.72;80.37;102362.47;5019764;28;20076;-68
2022/04/27 01:43:25;;;;;;;17.05;8.07;;;;;;;3.62;80.73;102361.69;5018632;28;20505;-67
2022/04/27 01:45:51;;;;;;;13.95;7.13;;;;;;;3.35;81.08;102368.94;5037796;28;20044;-68
2022/04/27 01:48:17;;;;;;;10.48;6.72;;;;;;;3.07;82.06;102370.06;5034247;28;20884;-67
2022/04/27 01:50:42;;;;;;;13.80;7.03;;;;;;;2.82;84.17;102372.00;5018893;28;20037;-67
2022/04/27 01:55:52;;;;;;;10.63;7.03;;;;;;;2.77;82.60;102376.44;5036847;28;20876;-67
2022/04/27 01:58:18;;;;;;;12.18;6.85;;;;;;;2.85;83.59;102370.19;4998632;28;20021;-67
2022/04/27 02:00:47;;;;;;;19.05;7.68;;;;;;;2.86;83.53;102371.06;5019257;28;20029;-67
2022/04/27 02:03:14;;;;;;;12.18;6.90;;;;;;;2.89;83.78;102373.69;5019618;28;20823;-67
2022/04/27 02:05:41;;;;;;;11.77;7.60;;;;;;;2.94;83.15;102377.19;5002987;28;20075;-67
2022/04/27 02:08:07;;;;;;;15.70;8.13;;;;;;;2.89;83.08;102378.09;5018300;28;20131;-66
2022/04/27 02:10:34;;;;;;;14.15;7.55;;;;;;;2.89;82.08;102378.09;5018371;28;20048;-66
2022/04/27 02:13:01;;;;;;;12.95;7.13;;;;;;;2.82;82.13;102382.53;5017704;28;20065;-66
2022/04/27 02:15:27;;;;;;;15.88;7.97;;;;;;;2.76;82.01;102382.56;5016874;28;20044;-68
2022/04/27 02:18:06;;;;;;;8.55;6.25;;;;;;;2.73;82.66;102386.09;5017755;28;20167;-66
2022/04/27 02:20:32;;;;;;;12.30;6.28;;;;;;;2.60;82.25;102382.66;5035718;28;20080;-69
2022/04/27 02:22:58;;;;;;;13.00;6.43;;;;;;;2.60;82.11;102389.69;5036219;28;20037;-68
2022/04/27 02:25:23;;;;;;;13.52;7.53;;;;;;;2.54;81.75;102392.34;5036973;28;20042;-68
2022/04/27 02:27:49;;;;;;;9.55;6.53;;;;;;;2.59;82.08;102394.06;5056663;28;20036;-68
2022/04/27 02:30:16;;;;;;;12.40;7.13;;;;;;;2.74;81.77;102389.59;5036642;28;20051;-66
2022/04/27 02:32:42;;;;;;;12.40;7.40;;;;;;;2.82;81.81;102388.69;5036641;28;20060;-66
2022/04/27 02:35:08;;;;;;;13.15;7.47;;;;;;;2.83;81.48;102394.81;5053987;28;20032;-68
2022/04/27 02:37:36;;;;;;;15.63;8.02;;;;;;;2.66;81.11;102392.31;5035587;28;20124;-66
2022/04/27 02:40:03;;;;;;;11.18;7.43;;;;;;;2.63;82.36;102400.22;5018648;28;20132;-68
2022/04/27 02:42:29;;;;;;;16.77;7.47;;;;;;;2.65;82.34;102394.91;5016277;28;20036;-68
2022/04/27 02:44:59;;;;;;;12.52;8.05;;;;;;;2.73;81.86;102395.75;5016270;28;20072;-67
2022/04/27 02:47:24;;;;;;;12.32;7.60;;;;;;;2.73;82.56;102395.75;5035026;28;20805;-66
2022/04/27 02:52:48;;;;;;;11.55;7.15;;;;;;;2.33;84.05;102407.38;5017082;28;20533;-66
2022/04/27 02:55:23;;;;;;;11.50;6.35;;;;;;;2.18;83.58;102403.91;5034881;28;20032;-66
2022/04/27 02:57:49;;;;;;;12.80;6.78;;;;;;;2.27;83.65;102406.53;5017794;28;20524;-66
2022/04/27 03:00:14;;;;;;;17.45;7.15;;;;;;;2.24;84.43;102407.38;5017027;28;20040;-66
2022/04/27 03:02:40;;;;;;;15.32;8.95;;;;;;;2.44;84.08;102411.69;5036069;28;20084;-66
2022/04/27 03:05:07;;;;;;;17.83;8.57;;;;;;;2.49;84.73;102409.94;5016180;28;20928;-66
2022/04/27 03:07:32;;;;;;;15.90;8.60;;;;;;;2.51;84.48;102409.06;5016067;28;20040;-66
2022/04/27 03:09:57;;;;;;;13.07;7.25;;;;;;;2.41;83.93;102411.69;5016563;28;20136;-66
2022/04/27 03:12:24;;;;;;;14.65;8.25;;;;;;;2.22;83.99;102417.06;5016563;28;20036;-67
2022/04/27 03:14:50;;;;;;;12.85;7.50;;;;;;;2.16;82.41;102426.72;5017219;28;20544;-66
2022/04/27 03:17:15;;;;;;;17.20;9.13;;;;;;;2.27;82.34;102427.56;4999521;28;20045;-66
2022/04/27 03:19:41;;;;;;;17.63;9.43;;;;;;;2.40;82.99;102425.75;5017393;28;20107;-66
2022/04/27 03:22:08;;;;;;;13.27;8.43;;;;;;;2.45;82.82;102432.75;5016017;28;20447;-66
2022/04/27 03:24:34;;;;;;;15.68;9.70;;;;;;;2.42;83.44;102429.28;5015406;28;20110;-67
2022/04/27 03:27:15;;;;;;;18.30;8.35;;;;;;;2.44;82.82;102428.38;5014765;28;20047;-66
2022/04/27 03:29:42;;;;;;;15.02;8.80;;;;;;;2.49;83.23;102417.81;5015573;28;20897;-67
2022/04/27 03:32:10;;;;;;;18.08;8.43;;;;;;;2.40;83.69;102423.13;5015933;28;20040;-66
2022/04/27 03:34:37;;;;;;;15.27;8.75;;;;;;;2.22;82.78;102426.72;5015691;28;20045;-66
2022/04/27 03:37:02;;;;;;;14.35;7.60;;;;;;;2.23;82.26;102425.81;5014895;28;20040;-66
2022/04/27 03:39:28;;;;;;;12.93;7.82;;;;;;;2.23;82.33;102420.56;5028367;28;20041;-66
2022/04/27 03:41:54;;;;;;;12.32;7.50;;;;;;;2.24;81.71;102422.31;5035936;28;20051;-66
2022/04/27 03:44:20;;;;;;;15.15;7.45;;;;;;;2.22;82.16;102427.59;5053662;28;20126;-66
2022/04/27 03:46:45;;;;;;;15.43;7.85;;;;;;;2.19;82.07;102424.09;5055333;28;20078;-66
2022/04/27 03:49:12;;;;;;;15.02;7.65;;;;;;;2.21;81.76;102430.19;5036188;28;20032;-66
2022/04/27 03:51:37;;;;;;;14.02;7.15;;;;;;;2.10;81.57;102432.00;5055284;28;20098;-66
2022/04/27 03:54:02;;;;;;;13.30;7.85;;;;;;;2.12;81.87;102435.53;5035925;28;20098;-67
2022/04/27 03:56:28;;;;;;;17.15;7.88;;;;;;;2.16;82.86;102435.50;5024711;28;20029;-66
2022/04/27 03:58:53;;;;;;;15.30;7.80;;;;;;;2.14;82.59;102431.97;5016512;28;20040;-66
2022/04/27 04:01:19;;;;;;;9.63;6.00;;;;;;;1.65;83.05;102432.06;5016635;28;20037;-66
2022/04/27 04:03:44;;;;;;;10.88;6.72;;;;;;;1.68;84.17;102437.34;5035085;28;20124;-66
2022/04/27 04:06:10;;;;;;;9.73;5.95;;;;;;;1.74;84.46;102442.59;5017106;28;20544;-67
2022/04/27 04:08:43;;;;;;;;;;;;;;;1.84;83.09;102450.47;5017780;28;20037;-66
2022/04/27 04:11:11;;;;;;;11.48;6.95;;;;;;;1.90;83.13;102442.56;5015650;28;19929;-66
2022/04/27 04:13:55;;;;;;;12.07;7.03;;;;;;;1.87;83.32;102453.97;5033522;28;20052;-66
2022/04/27 04:16:38;;;;;;;13.18;7.10;;;;;;;1.86;83.30;102446.06;5015851;28;20197;-66
2022/04/27 04:19:22;;;;;;;14.50;8.18;;;;;;;1.90;83.95;102448.69;5034916;28;20103;-66
2022/04/27 04:22:12;;;;;;;18.02;8.85;;;;;;;1.99;83.24;102461.84;5030973;28;20029;-67
2022/04/27 04:30:21;;;;;;;14.48;8.25;;;;;;;2.13;84.40;102458.31;5039906;28;20098;-68
2022/04/27 04:33:01;;;;;;;18.83;9.48;;;;;;;2.26;84.07;102460.00;5036557;28;20731;-65
2022/04/27 04:35:34;;;;;;;17.63;9.95;;;;;;;2.47;82.93;102459.97;5020480;28;20033;-65
2022/04/27 04:37:59;;;;;;;16.88;8.30;;;;;;;2.47;81.06;102470.50;5019617;28;20036;-66
2022/04/27 04:40:26;;;;;;;16.80;8.07;;;;;;;2.54;80.77;102466.06;5019642;28;20037;-66
2022/04/27 04:42:52;;;;;;;14.30;8.07;;;;;;;2.46;80.72;102467.84;5021243;28;20075;-66
2022/04/27 04:45:19;;;;;;;15.63;7.72;;;;;;;2.66;80.51;102466.03;5011683;28;20047;-66
2022/04/27 04:48:05;;;;;;;11.63;7.25;;;;;;;3.33;78.66;102473.53;5025539;28;20102;-68
2022/04/27 04:50:54;;;;;;;16.50;8.40;;;;;;;3.86;76.64;102472.22;5013102;28;20053;-66
2022/04/27 04:53:36;;;;;;;14.75;8.45;;;;;;;4.37;75.01;102472.59;5001099;28;20371;-66
2022/04/27 04:56:23;;;;;;;17.05;8.30;;;;;;;4.79;74.11;102474.72;5029708;28;20142;-66
2022/04/27 04:59:11;;;;;;;17.17;8.38;;;;;;;4.71;75.58;102471.28;5032549;28;20135;-68
2022/04/27 05:02:12;;;;;;;14.10;8.52;;;;;;;4.31;74.98;102480.56;5017032;28;20052;-66
2022/04/27 05:05:09;;;;;;;15.63;7.93;;;;;;;4.35;75.67;102477.00;5020359;28;20037;-66
2022/04/27 05:07:57;;;;;;;13.27;7.50;;;;;;;4.50;74.90;102478.59;5022408;28;20848;-66
2022/04/27 05:10:41;;;;;;;13.32;7.82;;;;;;;4.91;73.64;102474.53;5038837;28;20056;-67
2022/04/27 05:13:23;;;;;;;14.00;8.15;;;;;;;5.49;72.57;102480.75;5020217;28;20543;-67
2022/04/27 05:15:56;;;;;;;15.68;8.73;;;;;;;5.58;72.76;102489.44;5004491;28;20044;-67
2022/04/27 05:18:53;;;;;;;13.27;8.40;;;;;;;5.88;72.14;102489.81;5020305;28;20481;-67
2022/04/27 05:21:41;;;;;;;14.98;8.85;;;;;;;5.86;72.13;102495.13;4965874;28;20055;-67
2022/04/27 05:24:18;;;;;;;15.35;7.70;;;;;;;6.86;67.81;102490.59;4956617;28;20146;-67
2022/04/27 05:27:02;;;;;;;10.88;7.43;;;;;;;6.90;67.95;102503.75;4940186;28;20097;-67
2022/04/27 05:33:07;;;;;;;13.30;8.30;;;;;;;7.43;66.71;102501.69;4954260;28;20069;-67
2022/04/27 05:35:51;;;;;;;15.73;8.43;;;;;;;7.94;65.68;102501.31;4943228;28;20042;-67
2022/04/27 05:38:26;;;;;;;15.35;9.02;;;;;;;8.39;65.28;102501.03;4963492;28;20105;-68
2022/04/27 05:41:10;;;;;;;19.27;8.88;;;;;;;8.76;64.23;102514.16;4978296;28;20060;-67
2022/04/27 05:43:51;;;;;;;15.43;9.43;;;;;;;8.85;64.79;102513.03;4981188;28;20789;-67
2022/04/27 05:46:23;;;;;;;17.03;8.60;;;;;;;8.79;64.54;102515.88;4995125;28;20042;-67
2022/04/27 05:49:09;;;;;;;17.33;8.82;;;;;;;9.09;64.85;102524.75;4984039;28;20694;-67
2022/04/27 05:51:54;;;;;;;13.27;8.70;;;;;;;9.45;64.46;102521.84;4994722;28;20129;-67
2022/04/27 05:54:31;;;;;;;14.32;8.43;;;;;;;9.46;64.05;102516.47;4994898;28;20123;-67
2022/04/27 05:57:03;;;;;;;;;;;;;;;9.49;63.94;102516.38;4979029;28;20043;-67
2022/04/27 05:59:43;;;;;;;16.60;8.18;;;;;;;9.51;64.38;102521.66;5029144;28;19920;-67
2022/04/27 06:02:42;;;;;;;16.33;9.73;;;;;;;10.19;62.49;102530.91;5037805;28;20075;-67
2022/04/27 06:05:09;;;;;;;13.35;8.48;;;;;;;9.75;64.97;102528.84;5018454;28;20025;-67
2022/04/27 06:07:36;;;;;;;17.83;8.85;;;;;;;9.78;64.29;102536.72;5002531;28;20134;-67
2022/04/27 06:10:06;;;;;;;20.08;7.90;;;;;;;10.54;61.95;102543.06;4996640;28;20133;-68
2022/04/27 06:12:46;;;;;;;12.88;8.23;;;;;;;10.35;63.29;102535.72;5016559;28;20210;-67
2022/04/27 06:15:51;;;;;;;14.80;8.70;;;;;;;10.24;63.89;102545.00;5015067;28;20929;-67
2022/04/27 06:18:30;;;;;;;15.25;8.98;;;;;;;10.85;63.38;102549.03;4995485;28;20046;-67
2022/04/27 06:20:57;;;;;;;11.88;8.90;;;;;;;10.61;63.47;102550.78;4993223;28;20046;-67
2022/04/27 06:23:23;;;;;;;15.35;8.82;;;;;;;10.93;61.48;102546.06;5010953;28;20029;-67
2022/04/27 06:25:49;;;;;;;14.00;8.63;;;;;;;10.72;62.78;102554.88;4995631;28;20049;-67
2022/04/27 06:28:20;;;;;;;12.80;7.87;;;;;;;10.60;60.78;102549.06;5011229;28;21049;-67
2022/04/27 06:30:47;;;;;;;11.80;8.23;;;;;;;10.66;61.30;102553.28;5011994;28;20500;-67
2022/04/27 06:33:13;;;;;;;14.30;8.63;;;;;;;11.22;60.88;102552.97;4994266;28;21006;-66
2022/04/27 06:35:40;;;;;;;13.23;8.73;;;;;;;11.20;61.33;102556.66;5011163;28;20045;-67
2022/04/27 06:38:12;;;;;;;12.55;7.75;;;;;;;11.25;61.04;102562.69;5011354;28;20106;-67
2022/04/27 06:40:37;;;;;;;13.73;9.00;;;;;;;11.12;61.89;102560.47;5012946;28;20049;-68
2022/04/27 06:43:03;;;;;;;15.27;9.07;;;;;;;11.51;60.34;102567.00;5011577;28;20032;-67
2022/04/27 06:45:48;;;;;;;12.75;8.10;;;;;;;11.63;60.74;102559.34;5005605;28;20174;-67
2022/04/27 06:48:33;;;;;;;14.68;8.43;;;;;;;11.76;58.93;102561.53;5052833;28;20098;-66
2022/04/27 06:51:34;;;;;;;11.57;7.38;;;;;;;11.98;58.00;102561.53;4951106;28;20058;-67
2022/04/27 06:54:20;;;;;;;10.43;8.32;;;;;;;11.27;59.86;102571.47;4951446;28;20097;-67
2022/04/27 06:57:04;;;;;;;11.57;7.85;;;;;;;12.19;57.56;102556.16;4934580;28;20055;-67
2022/04/27 06:59:59;;;;;;;12.77;7.80;;;;;;;12.38;57.31;102563.41;4930855;28;20079;-67
2022/04/27 07:02:24;;;;;;;11.13;7.72;;;;;;;11.86;58.50;102568.28;4930885;29;20146;-67
2022/04/27 07:04:55;;;;;;;12.55;8.07;;;;;;;12.13;58.26;102574.28;4932479;29;20126;-67
2022/04/27 07:07:21;;;;;;;12.60;7.90;;;;;;;12.16;57.16;102568.81;4929771;28;20055;-67
2022/04/27 07:09:47;;;;;;;13.02;7.65;;;;;;;12.69;56.69;102570.94;4930970;28;20054;-67
2022/04/27 07:12:13;;;;;;;15.00;8.02;;;;;;;13.03;56.63;102570.28;4932243;29;20051;-67
2022/04/27 07:14:38;;;;;;;11.90;8.07;;;;;;;13.46;57.18;102569.19;4900446;29;20047;-68
2022/04/27 07:17:04;;;;;;;11.52;7.45;;;;;;;13.82;54.46;102575.53;4931163;28;20059;-68
2022/04/27 07:19:29;;;;;;;14.80;6.70;;;;;;;13.83;54.71;102580.81;4932886;29;20051;-68
2022/04/27 07:21:55;;;;;;;11.43;6.65;;;;;;;12.48;55.87;102580.78;4951301;28;20046;-68
2022/04/27 07:24:20;;;;;;;11.82;7.45;;;;;;;13.26;55.75;102589.84;4941064;28;20969;-68
2022/04/27 07:26:46;;;;;;;8.40;7.15;;;;;;;13.77;54.45;102582.94;5028201;28;20045;-67
2022/04/27 07:29:12;;;;;;;9.68;6.68;;;;;;;13.70;54.64;102577.88;5030684;28;20045;-67
2022/04/27 07:31:37;;;;;;;9.55;6.75;;;;;;;14.09;55.00;102582.19;5035961;28;20045;-68
2022/04/27 07:34:02;;;;;;;7.82;6.43;;;;;;;14.72;52.61;102592.41;5013732;28;20045;-67
2022/04/27 07:36:28;;;;;;;8.23;6.05;;;;;;;14.65;53.66;102591.84;4998846;28;20036;-68
2022/04/27 07:38:54;;;;;;;9.52;6.45;;;;;;;14.43;52.52;102593.91;5036672;28;20055;-67
2022/04/27 07:41:20;;;;;;;10.88;6.45;;;;;;;13.52;53.11;102597.50;5012301;28;20412;-68
2022/04/27 07:43:45;;;;;;;11.10;6.15;;;;;;;14.20;53.06;102595.06;5030832;28;20041;-68
2022/04/27 07:46:11;;;;;;;9.07;5.18;;;;;;;14.07;50.09;102596.63;5031840;28;20410;-68
2022/04/27 07:48:37;;;;;;;8.13;5.68;;;;;;;14.92;49.81;102602.09;5033281;28;20381;-68
2022/04/27 07:51:07;;;;;;;10.82;6.50;;;;;;;15.04;49.04;102601.44;5031503;28;20043;-68
2022/04/27 07:53:33;;;;;;;14.18;5.78;;;;;;;14.02;48.20;102596.00;5031207;28;20580;-68
2022/04/27 07:55:58;;;;;;;12.68;5.72;;;;;;;15.31;47.29;102599.03;5032410;28;20033;-67
2022/04/27 07:58:24;;;;;;;9.02;4.93;;;;;;;14.79;46.56;102604.56;5032383;28;20057;-68
2022/04/27 08:00:50;;;;;;;8.35;4.22;;;;;;;15.41;44.44;102600.31;5034419;28;20044;-68
2022/04/27 08:03:15;;;;;;;3.15;2.10;;;;;;;14.85;43.13;102604.22;5033054;28;20032;-68
2022/04/27 08:05:41;;;;;;;4.40;3.03;;;;;;;13.34;45.78;102606.41;5031569;28;20032;-68
2022/04/27 08:08:08;;;;;;;7.88;3.83;;;;;;;12.73;48.82;102612.69;5030444;28;20803;-67
2022/04/27 08:10:33;;;;;;;10.05;5.15;;;;;;;13.20;49.29;102615.03;5031278;28;20045;-68
2022/04/27 08:12:59;;;;;;;2.97;2.10;;;;;;;12.90;45.86;102612.84;5030705;28;20040;-67
2022/04/27 08:15:25;;;;;;;5.32;2.53;;;;;;;12.54;45.65;102623.34;5034173;28;20052;-67
2022/04/27 08:18:07;;;;;;;3.53;2.45;;;;;;;12.93;44.97;102617.16;5035744;28;20075;-67
2022/04/27 08:23:20;;;;;;;4.45;2.65;;;;;;;13.24;46.07;102622.03;5034928;28;20033;-67
2022/04/27 08:25:47;;;;;;;4.30;2.70;;;;;;;13.57;43.95;102621.41;5035703;28;20024;-67
2022/04/27 08:28:13;;;;;;;7.28;2.83;;;;;;;14.12;45.26;102621.41;5035218;28;20977;-67
2022/04/27 08:30:41;;;;;;;4.20;3.15;;;;;;;13.59;46.60;102619.53;5036737;28;20419;-67
2022/04/27 08:33:08;;;;;;;5.10;3.30;;;;;;;13.20;54.50;102628.44;5036839;28;20041;-67
2022/04/27 08:35:34;;;;;;;7.78;3.70;;;;;;;13.25;48.40;102626.44;5036929;28;20110;-67
2022/04/27 08:38:00;;;;;;;6.38;3.50;;;;;;;13.40;50.16;102628.44;5036092;28;20154;-67
2022/04/27 08:40:27;;;;;;;5.20;3.42;;;;;;;13.60;48.55;102623.94;5036668;28;20051;-67
2022/04/27 08:42:53;;;;;;;4.40;2.92;;;;;;;14.11;45.59;102622.38;5040952;28;20481;-67
2022/04/27 08:45:19;;;;;;;3.38;2.20;;;;;;;13.66;47.78;102621.84;5029353;28;20532;-67
2022/04/27 08:47:50;;;;;;;5.78;2.45;;;;;;;13.28;46.68;102630.81;5028323;28;20040;-67
2022/04/27 08:50:20;;;;;;;4.45;1.92;;;;;;;13.04;48.45;102633.63;5025134;28;20044;-67
2022/04/27 08:52:46;;;;;;;4.07;2.45;;;;;;;13.00;47.04;102629.34;5028884;28;20072;-67
2022/04/27 08:55:12;;;;;;;3.72;2.58;;;;;;;12.18;48.54;102631.97;5014867;28;20946;-67
2022/04/27 08:57:38;;;;;;;4.07;2.75;;;;;;;11.68;48.79;102633.97;5031675;28;20033;-67
2022/04/27 09:00:06;;;;;;;2.35;2.15;;;;;;;12.60;50.17;102636.47;5032838;28;20032;-67
2022/04/27 09:02:33;;;;;;;4.10;2.55;;;;;;;13.58;49.19;102624.00;5032126;28;20675;-67
2022/04/27 09:05:15;;;;;;;3.72;2.42;;;;;;;12.80;48.94;102638.28;5034025;28;20051;-67
2022/04/27 09:07:50;;;;;;;3.80;3.05;;;;;;;11.94;49.23;102643.66;5031695;28;20045;-67
2022/04/27 09:10:18;;;;;;;3.78;3.03;;;;;;;12.54;48.02;102643.88;5031683;28;20770;-67
2022/04/27 09:12:46;;;;;;;3.92;3.20;;;;;;;13.39;47.73;102629.38;5031622;28;20036;-67
2022/04/27 09:15:13;;;;;;;5.85;3.10;;;;;;;12.83;46.67;102640.81;5032392;28;20040;-67
2022/04/27 09:23:22;;;;;;;5.57;3.15;;;;;;;12.99;49.08;102648.16;5013515;28;20682;-67
2022/04/27 09:25:51;;;;;;;6.20;2.70;;;;;;;12.79;48.07;102646.34;5017139;28;20036;-66
2022/04/27 09:28:17;;;;;;;3.80;2.90;;;;;;;12.81;48.94;102648.06;5033411;28;20057;-66
2022/04/27 09:30:44;;;;;;;6.63;2.88;;;;;;;12.75;46.77;102642.97;5004045;28;20057;-66
2022/04/27 09:33:09;;;;;;;4.70;3.38;;;;;;;12.64;47.90;102646.09;5026291;28;20545;-66
2022/04/27 09:35:36;;;;;;;3.30;2.67;;;;;;;13.96;44.31;102640.09;5033231;28;20131;-67
2022/04/27 09:38:21;;;;;;;5.70;2.70;;;;;;;13.97;44.98;102639.13;5023179;28;20040;-67
2022/04/27 09:40:53;;;;;;;3.97;2.60;;;;;;;13.45;48.28;102644.28;5032000;28;20148;-67
2022/04/27 09:43:44;;;;;;;5.55;2.70;;;;;;;13.17;49.27;102645.53;5026290;28;20032;-67
2022/04/27 09:46:23;;;;;;;3.20;2.15;;;;;;;12.93;48.53;102646.63;5024593;28;20037;-67
2022/04/27 09:49:04;;;;;;;3.22;2.83;;;;;;;12.93;46.77;102644.81;5032131;28;20032;-66
2022/04/27 09:51:31;;;;;;;2.75;2.47;;;;;;;13.07;48.97;102646.03;5032719;28;20170;-67
2022/04/27 09:53:59;;;;;;;4.13;3.03;;;;;;;14.00;50.41;102642.50;5034991;28;20033;-67
2022/04/27 09:56:28;;;;;;;3.05;2.50;;;;;;;13.82;44.93;102643.44;5012122;28;20036;-67
2022/04/27 09:58:56;;;;;;;3.58;2.80;;;;;;;14.18;45.47;102635.38;5026514;28;20143;-67
2022/04/27 10:01:22;;;;;;;4.80;3.08;;;;;;;13.64;46.80;102645.16;5013853;28;20037;-67
2022/04/27 10:03:48;;;;;;;4.88;2.72;;;;;;;13.88;44.13;102639.56;5033507;28;20161;-66
2022/04/27 10:06:15;;;;;;;5.82;3.10;;;;;;;13.81;43.56;102646.19;5039507;28;20040;-67
2022/04/27 10:08:41;;;;;;;4.32;2.63;;;;;;;14.30;44.12;102636.56;5044000;28;20036;-67
2022/04/27 10:11:10;;;;;;;8.73;2.85;;;;;;;14.64;45.72;102635.75;5040109;28;20158;-66
2022/04/27 10:13:35;;;;;;;6.63;2.22;;;;;;;14.58;47.06;102641.47;5028389;28;20094;-66
2022/04/27 10:16:01;;;;;;;4.68;3.08;;;;;;;14.72;45.73;102638.94;5047886;28;20036;-66
2022/04/27 10:18:27;;;;;;;6.82;3.05;;;;;;;14.40;45.01;102631.63;5031482;28;20126;-67
2022/04/27 10:20:52;;;;;;;8.02;2.60;;;;;;;14.62;43.67;102640.34;5037646;28;21578;-67
2022/04/27 10:23:24;;;;;;;3.60;2.70;;;;;;;13.42;42.96;102642.63;5020829;28;20952;-67
2022/04/27 10:26:09;;;;;;;3.67;2.60;;;;;;;13.77;45.91;102631.19;5032596;28;20664;-67
2022/04/27 10:28:43;;;;;;;3.63;2.60;;;;;;;14.00;42.20;102631.78;5031445;28;20135;-66
2022/04/27 10:31:09;;;;;;;3.90;2.45;;;;;;;14.19;45.27;102631.75;5025490;28;20451;-66
2022/04/27 10:33:47;;;;;;;3.08;2.63;;;;;;;14.87;42.63;102637.25;5033102;28;20044;-66
2022/04/27 10:36:28;;;;;;;4.03;2.70;;;;;;;14.83;48.07;102643.75;5010461;28;20461;-66
2022/04/27 10:39:11;;;;;;;4.63;2.28;;;;;;;13.27;46.47;102639.78;5027655;28;20778;-66
2022/04/27 10:41:38;;;;;;;3.60;2.53;;;;;;;13.11;47.23;102640.47;5030863;28;20049;-66
2022/04/27 10:44:03;;;;;;;4.47;2.88;;;;;;;12.94;47.29;102637.66;5017771;28;20036;-65
2022/04/27 10:46:39;;;;;;;7.75;3.00;;;;;;;13.26;47.59;102638.94;5031809;28;20041;-66
2022/04/27 10:49:25;;;;;;;9.00;2.60;;;;;;;13.27;50.81;102637.13;5032141;28;20395;-66
2022/04/27 10:52:07;;;;;;;7.68;3.55;;;;;;;13.82;46.03;102639.88;5016812;28;20057;-65
2022/04/27 10:54:37;;;;;;;3.47;2.75;;;;;;;14.27;45.73;102639.44;5032034;28;20045;-65
2022/04/27 10:57:14;;;;;;;3.38;2.47;;;;;;;14.61;40.71;102638.63;5031105;28;20212;-66
2022/04/27 10:59:43;;;;;;;4.18;2.25;;;;;;;14.93;41.06;102631.56;5023739;28;20037;-66
2022/04/27 11:02:33;;;;;;;4.25;2.40;;;;;;;14.96;41.07;102633.19;5031037;28;20126;-65
2022/04/27 11:05:04;;;;;;;4.20;2.65;;;;;;;15.00;41.28;102629.41;5030776;28;20587;-66
2022/04/27 11:07:29;;;;;;;4.90;2.58;;;;;;;14.42;41.79;102622.56;4996738;28;20052;-66
2022/04/27 11:10:08;;;;;;;3.17;2.85;;;;;;;14.68;42.85;102620.38;5031274;28;20033;-65
2022/04/27 11:12:36;;;;;;;3.75;2.42;;;;;;;15.28;42.24;102626.97;5011105;28;20085;-65
2022/04/27 11:15:03;;;;;;;4.70;2.42;;;;;;;15.11;42.24;102627.03;5028891;28;20081;-65
2022/04/27 11:17:29;;;;;;;2.72;2.20;;;;;;;15.53;40.08;102618.44;4996853;28;20033;-66
2022/04/27 11:19:55;;;;;;;7.90;2.80;;;;;;;15.07;41.86;102622.78;5013420;28;20064;-66
2022/04/27 11:22:21;;;;;;;2.88;2.50;;;;;;;15.73;41.74;102622.72;5039368;28;20052;-66
2022/04/27 11:24:48;;;;;;;5.50;2.88;;;;;;;15.37;42.97;102625.63;5031162;28;20056;-65
2022/04/27 11:27:26;;;;;;;4.43;2.60;;;;;;;15.31;43.98;102623.22;5027071;28;20079;-66
2022/04/27 11:29:53;;;;;;;3.15;2.55;;;;;;;15.61;40.33;102614.41;5014487;28;20132;-65
2022/04/27 11:32:18;;;;;;;5.18;2.67;;;;;;;14.72;41.95;102609.41;5011346;28;20064;-66
2022/04/27 11:34:48;;;;;;;5.15;3.15;;;;;;;14.60;46.56;102618.06;5038080;28;20378;-66
2022/04/27 11:37:19;;;;;;;7.15;2.80;;;;;;;15.29;45.97;102622.47;5050681;28;20032;-66
2022/04/27 11:39:45;;;;;;;2.97;2.53;;;;;;;15.14;43.59;102624.16;5034634;28;20908;-66
2022/04/27 11:42:12;;;;;;;5.55;2.80;;;;;;;15.75;41.57;102614.56;5027591;28;20056;-66
2022/04/27 11:44:41;;;;;;;3.55;2.90;;;;;;;15.94;42.32;102606.31;5027061;28;20071;-66
2022/04/27 11:47:29;;;;;;;2.53;2.25;;;;;;;16.30;41.54;102597.88;5031686;28;20055;-66
2022/04/27 11:49:56;;;;;;;4.32;3.13;;;;;;;16.44;40.88;102602.47;5018060;28;20888;-66
2022/04/27 11:52:22;;;;;;;3.53;2.35;;;;;;;16.04;39.05;102604.81;5039668;28;20033;-66
2022/04/27 11:54:48;;;;;;;4.63;2.63;;;;;;;16.33;40.33;102596.84;5013370;28;20080;-66
2022/04/27 11:57:23;;;;;;;3.65;2.70;;;;;;;16.11;41.11;102594.53;5026902;28;20147;-66
2022/04/27 11:59:56;;;;;;;5.25;2.65;;;;;;;15.93;39.78;102600.06;5029556;28;20098;-66
2022/04/27 12:02:24;;;;;;;3.33;2.58;;;;;;;16.15;40.23;102596.97;5029695;28;20045;-66